sensor_id;sensor_type;location;lat;lon;timestamp;temperature;humidity
10536;DHT22;5316;49.538;8.352;2023-04-24T00:01:39;12.40;1.00
10536;DHT22;5316;49.538;8.352;2023-04-24T00:04:08;12.30;1.00
10536;DHT22;5316;49.538;8.352;2023-04-24T00:06:36;12.20;1.00
10536;DHT22;5316;49.538;8.352;2023-04-24T00:09:05;12.20;1.00
10536;DHT22;5316;49.538;8.352;2023-04-24T00:11:32;12.30;1.00
10536;DHT22;5316;49.538;8.352;2023-04-24T00:13:59;12.20;1.00
10536;DHT22;5316;49.538;8.352;2023-04-24T00:16:26;12.10;1.00
10536;DHT22;5316;49.538;8.352;2023-04-24T00:18:53;12.00;1.00
10536;DHT22;5316;49.538;8.352;2023-04-24T00:21:20;12.10;1.00
10536;DHT22;5316;49.538;8.352;2023-04-24T00:23:51;12.00;1.00
10536;DHT22;5316;49.538;8.352;2023-04-24T00:26:21;12.00;1.00
10536;DHT22;5316;49.538;8.352;2023-04-24T00:28:50;12.00;1.00
10536;DHT22;5316;49.538;8.352;2023-04-24T00:31:19;12.00;1.00
10536;DHT22;5316;49.538;8.352;2023-04-24T00:33:46;12.10;1.00
10536;DHT22;5316;49.538;8.352;2023-04-24T00:36:13;12.00;1.00
10536;DHT22;5316;49.538;8.352;2023-04-24T00:38:40;12.00;1.00
10536;DHT22;5316;49.538;8.352;2023-04-24T00:41:07;12.10;1.00
10536;DHT22;5316;49.538;8.352;2023-04-24T00:43:35;12.10;1.00
10536;DHT22;5316;49.538;8.352;2023-04-24T00:46:02;12.10;1.00
10536;DHT22;5316;49.538;8.352;2023-04-24T00:48:30;12.10;1.00
10536;DHT22;5316;49.538;8.352;2023-04-24T00:50:58;12.10;1.00
10536;DHT22;5316;49.538;8.352;2023-04-24T00:53:24;12.20;1.00
10536;DHT22;5316;49.538;8.352;2023-04-24T00:55:51;12.20;1.00
10536;DHT22;5316;49.538;8.352;2023-04-24T00:58:18;12.20;1.00
10536;DHT22;5316;49.538;8.352;2023-04-24T01:00:48;12.20;1.00
10536;DHT22;5316;49.538;8.352;2023-04-24T01:03:16;12.10;1.00
10536;DHT22;5316;49.538;8.352;2023-04-24T01:05:45;12.10;1.00
10536;DHT22;5316;49.538;8.352;2023-04-24T01:08:12;12.20;1.00
10536;DHT22;5316;49.538;8.352;2023-04-24T01:10:39;12.10;1.00
10536;DHT22;5316;49.538;8.352;2023-04-24T01:13:07;12.00;1.00
10536;DHT22;5316;49.538;8.352;2023-04-24T01:15:35;12.00;1.00
10536;DHT22;5316;49.538;8.352;2023-04-24T01:18:03;12.00;1.00
10536;DHT22;5316;49.538;8.352;2023-04-24T01:20:31;12.00;1.00
10536;DHT22;5316;49.538;8.352;2023-04-24T01:23:00;12.00;1.00
10536;DHT22;5316;49.538;8.352;2023-04-24T01:25:28;12.00;1.00
10536;DHT22;5316;49.538;8.352;2023-04-24T01:27:55;12.00;1.00
10536;DHT22;5316;49.538;8.352;2023-04-24T01:30:22;12.10;1.00
10536;DHT22;5316;49.538;8.352;2023-04-24T01:32:49;12.10;1.00
10536;DHT22;5316;49.538;8.352;2023-04-24T01:35:17;12.10;1.00
10536;DHT22;5316;49.538;8.352;2023-04-24T01:37:44;12.10;1.00
10536;DHT22;5316;49.538;8.352;2023-04-24T01:40:12;12.20;1.00
10536;DHT22;5316;49.538;8.352;2023-04-24T01:42:41;12.20;1.00
10536;DHT22;5316;49.538;8.352;2023-04-24T01:45:10;12.20;1.00
10536;DHT22;5316;49.538;8.352;2023-04-24T01:47:38;12.20;1.00
10536;DHT22;5316;49.538;8.352;2023-04-24T01:50:06;12.20;1.00
10536;DHT22;5316;49.538;8.352;2023-04-24T01:52:33;12.20;1.00
10536;DHT22;5316;49.538;8.352;2023-04-24T01:55:01;12.20;1.00
10536;DHT22;5316;49.538;8.352;2023-04-24T01:57:31;12.20;1.00
10536;DHT22;5316;49.538;8.352;2023-04-24T01:59:57;12.20;1.00
10536;DHT22;5316;49.538;8.352;2023-04-24T02:02:24;12.20;1.00
10536;DHT22;5316;49.538;8.352;2023-04-24T02:04:52;12.20;7.70
10536;DHT22;5316;49.538;8.352;2023-04-24T02:07:19;12.20;14.00
10536;DHT22;5316;49.538;8.352;2023-04-24T02:09:46;12.30;18.60
10536;DHT22;5316;49.538;8.352;2023-04-24T02:12:13;12.30;92.00
10536;DHT22;5316;49.538;8.352;2023-04-24T02:14:41;12.30;99.90
10536;DHT22;5316;49.538;8.352;2023-04-24T02:17:08;12.20;99.90
10536;DHT22;5316;49.538;8.352;2023-04-24T02:19:38;12.20;99.90
10536;DHT22;5316;49.538;8.352;2023-04-24T02:22:05;12.10;99.90
10536;DHT22;5316;49.538;8.352;2023-04-24T02:24:32;12.00;99.90
10536;DHT22;5316;49.538;8.352;2023-04-24T02:26:59;12.00;99.90
10536;DHT22;5316;49.538;8.352;2023-04-24T02:29:28;11.90;99.90
10536;DHT22;5316;49.538;8.352;2023-04-24T02:31:56;11.70;99.90
10536;DHT22;5316;49.538;8.352;2023-04-24T02:34:23;11.60;99.90
10536;DHT22;5316;49.538;8.352;2023-04-24T02:36:50;11.50;99.90
10536;DHT22;5316;49.538;8.352;2023-04-24T02:39:19;11.40;99.90
10536;DHT22;5316;49.538;8.352;2023-04-24T02:41:46;11.40;99.90
10536;DHT22;5316;49.538;8.352;2023-04-24T02:44:13;11.40;99.90
10536;DHT22;5316;49.538;8.352;2023-04-24T02:46:40;11.30;99.90
10536;DHT22;5316;49.538;8.352;2023-04-24T02:49:09;11.30;99.90
10536;DHT22;5316;49.538;8.352;2023-04-24T02:51:37;11.30;99.90
10536;DHT22;5316;49.538;8.352;2023-04-24T02:54:07;11.20;99.90
10536;DHT22;5316;49.538;8.352;2023-04-24T02:56:35;11.20;99.90
10536;DHT22;5316;49.538;8.352;2023-04-24T02:59:02;11.20;99.90
10536;DHT22;5316;49.538;8.352;2023-04-24T03:01:29;11.30;99.90
10536;DHT22;5316;49.538;8.352;2023-04-24T03:03:56;11.20;99.90
10536;DHT22;5316;49.538;8.352;2023-04-24T03:06:25;11.10;99.90
10536;DHT22;5316;49.538;8.352;2023-04-24T03:08:52;11.00;99.90
10536;DHT22;5316;49.538;8.352;2023-04-24T03:11:20;11.10;99.90
10536;DHT22;5316;49.538;8.352;2023-04-24T03:13:47;11.10;99.90
10536;DHT22;5316;49.538;8.352;2023-04-24T03:16:14;11.10;99.90
10536;DHT22;5316;49.538;8.352;2023-04-24T03:18:41;11.10;99.90
10536;DHT22;5316;49.538;8.352;2023-04-24T03:21:08;11.00;99.90
10536;DHT22;5316;49.538;8.352;2023-04-24T03:23:37;11.00;98.10
10536;DHT22;5316;49.538;8.352;2023-04-24T03:26:04;11.00;1.00
10536;DHT22;5316;49.538;8.352;2023-04-24T03:28:31;11.00;1.00
10536;DHT22;5316;49.538;8.352;2023-04-24T03:30:58;11.00;1.00
10536;DHT22;5316;49.538;8.352;2023-04-24T03:33:25;11.00;11.40
10536;DHT22;5316;49.538;8.352;2023-04-24T03:35:52;11.00;56.40
10536;DHT22;5316;49.538;8.352;2023-04-24T03:38:19;11.00;99.90
10536;DHT22;5316;49.538;8.352;2023-04-24T03:40:48;10.90;99.90
10536;DHT22;5316;49.538;8.352;2023-04-24T03:43:15;10.90;99.90
10536;DHT22;5316;49.538;8.352;2023-04-24T03:45:42;10.80;99.90
10536;DHT22;5316;49.538;8.352;2023-04-24T03:48:10;10.80;99.90
10536;DHT22;5316;49.538;8.352;2023-04-24T03:50:37;10.70;64.60
10536;DHT22;5316;49.538;8.352;2023-04-24T03:53:05;10.70;11.00
10536;DHT22;5316;49.538;8.352;2023-04-24T03:55:32;10.70;15.90
10536;DHT22;5316;49.538;8.352;2023-04-24T03:58:01;10.60;1.00
10536;DHT22;5316;49.538;8.352;2023-04-24T04:00:28;10.70;1.00
10536;DHT22;5316;49.538;8.352;2023-04-24T04:02:59;10.50;1.00
10536;DHT22;5316;49.538;8.352;2023-04-24T04:05:26;10.50;1.00
10536;DHT22;5316;49.538;8.352;2023-04-24T04:07:53;10.40;1.00
10536;DHT22;5316;49.538;8.352;2023-04-24T04:10:21;10.40;1.00
10536;DHT22;5316;49.538;8.352;2023-04-24T04:12:49;10.30;1.00
10536;DHT22;5316;49.538;8.352;2023-04-24T04:15:17;10.40;1.00
10536;DHT22;5316;49.538;8.352;2023-04-24T04:17:45;10.20;1.00
10536;DHT22;5316;49.538;8.352;2023-04-24T04:20:12;10.20;1.00
10536;DHT22;5316;49.538;8.352;2023-04-24T04:22:43;10.10;19.50
10536;DHT22;5316;49.538;8.352;2023-04-24T04:25:10;10.10;20.50
10536;DHT22;5316;49.538;8.352;2023-04-24T04:27:39;10.10;34.30
10536;DHT22;5316;49.538;8.352;2023-04-24T04:30:08;10.10;55.10
10536;DHT22;5316;49.538;8.352;2023-04-24T04:32:36;10.10;72.90
10536;DHT22;5316;49.538;8.352;2023-04-24T04:35:04;10.00;64.60
10536;DHT22;5316;49.538;8.352;2023-04-24T04:37:32;10.10;49.70
10536;DHT22;5316;49.538;8.352;2023-04-24T04:40:00;10.10;49.00
10536;DHT22;5316;49.538;8.352;2023-04-24T04:42:32;10.00;81.90
10536;DHT22;5316;49.538;8.352;2023-04-24T04:45:00;10.00;71.50
10536;DHT22;5316;49.538;8.352;2023-04-24T04:47:27;9.90;77.80
10536;DHT22;5316;49.538;8.352;2023-04-24T04:49:58;9.80;62.30
10536;DHT22;5316;49.538;8.352;2023-04-24T04:52:25;9.70;65.60
10536;DHT22;5316;49.538;8.352;2023-04-24T04:54:52;9.70;76.30
10536;DHT22;5316;49.538;8.352;2023-04-24T04:57:20;9.70;26.60
10536;DHT22;5316;49.538;8.352;2023-04-24T04:59:47;9.70;1.00
10536;DHT22;5316;49.538;8.352;2023-04-24T05:02:14;9.80;1.00
10536;DHT22;5316;49.538;8.352;2023-04-24T05:04:42;9.90;1.00
10536;DHT22;5316;49.538;8.352;2023-04-24T05:07:10;9.90;1.00
10536;DHT22;5316;49.538;8.352;2023-04-24T05:09:37;9.90;1.00
10536;DHT22;5316;49.538;8.352;2023-04-24T05:12:05;10.00;1.00
10536;DHT22;5316;49.538;8.352;2023-04-24T05:14:33;10.10;1.00
10536;DHT22;5316;49.538;8.352;2023-04-24T05:17:00;10.20;1.00
10536;DHT22;5316;49.538;8.352;2023-04-24T05:19:27;10.20;1.00
10536;DHT22;5316;49.538;8.352;2023-04-24T05:21:54;10.20;1.00
10536;DHT22;5316;49.538;8.352;2023-04-24T05:24:22;10.30;1.00
10536;DHT22;5316;49.538;8.352;2023-04-24T05:26:49;10.30;1.00
10536;DHT22;5316;49.538;8.352;2023-04-24T05:29:16;10.30;1.00
10536;DHT22;5316;49.538;8.352;2023-04-24T05:31:45;10.30;99.90
10536;DHT22;5316;49.538;8.352;2023-04-24T05:34:12;10.30;1.00
10536;DHT22;5316;49.538;8.352;2023-04-24T05:36:39;10.40;99.90
10536;DHT22;5316;49.538;8.352;2023-04-24T05:39:06;10.30;1.00
10536;DHT22;5316;49.538;8.352;2023-04-24T05:41:35;10.40;1.00
10536;DHT22;5316;49.538;8.352;2023-04-24T05:44:02;10.40;1.00
10536;DHT22;5316;49.538;8.352;2023-04-24T05:46:29;10.50;1.00
10536;DHT22;5316;49.538;8.352;2023-04-24T05:48:56;10.50;1.00
10536;DHT22;5316;49.538;8.352;2023-04-24T05:51:23;10.60;1.00
10536;DHT22;5316;49.538;8.352;2023-04-24T05:53:51;10.50;1.00
10536;DHT22;5316;49.538;8.352;2023-04-24T05:56:18;10.60;1.00
10536;DHT22;5316;49.538;8.352;2023-04-24T05:58:47;10.60;1.00
10536;DHT22;5316;49.538;8.352;2023-04-24T06:01:14;10.60;1.00
10536;DHT22;5316;49.538;8.352;2023-04-24T06:03:41;10.60;1.00
10536;DHT22;5316;49.538;8.352;2023-04-24T06:06:08;10.60;1.00
10536;DHT22;5316;49.538;8.352;2023-04-24T06:08:35;10.60;1.00
10536;DHT22;5316;49.538;8.352;2023-04-24T06:11:02;10.60;1.00
10536;DHT22;5316;49.538;8.352;2023-04-24T06:13:29;10.60;1.00
10536;DHT22;5316;49.538;8.352;2023-04-24T06:15:58;10.70;1.00
10536;DHT22;5316;49.538;8.352;2023-04-24T06:18:25;10.70;1.00
10536;DHT22;5316;49.538;8.352;2023-04-24T06:20:52;10.80;1.00
10536;DHT22;5316;49.538;8.352;2023-04-24T06:23:18;10.80;1.00
10536;DHT22;5316;49.538;8.352;2023-04-24T06:25:45;10.80;1.00
10536;DHT22;5316;49.538;8.352;2023-04-24T06:28:12;10.80;1.00
10536;DHT22;5316;49.538;8.352;2023-04-24T06:30:39;10.90;1.00
10536;DHT22;5316;49.538;8.352;2023-04-24T06:33:08;10.90;1.00
10536;DHT22;5316;49.538;8.352;2023-04-24T06:35:36;10.90;1.00
10536;DHT22;5316;49.538;8.352;2023-04-24T06:38:03;10.90;1.00
10536;DHT22;5316;49.538;8.352;2023-04-24T06:40:30;10.90;1.00
10536;DHT22;5316;49.538;8.352;2023-04-24T06:42:57;10.80;1.00
10536;DHT22;5316;49.538;8.352;2023-04-24T06:45:25;10.90;1.00
10536;DHT22;5316;49.538;8.352;2023-04-24T06:47:52;10.70;1.00
10536;DHT22;5316;49.538;8.352;2023-04-24T06:50:21;10.70;1.00
10536;DHT22;5316;49.538;8.352;2023-04-24T06:52:48;10.60;1.00
10536;DHT22;5316;49.538;8.352;2023-04-24T06:55:15;10.70;1.00
10536;DHT22;5316;49.538;8.352;2023-04-24T06:57:42;10.70;1.00
10536;DHT22;5316;49.538;8.352;2023-04-24T07:00:11;10.70;1.00
10536;DHT22;5316;49.538;8.352;2023-04-24T07:02:39;10.80;1.00
10536;DHT22;5316;49.538;8.352;2023-04-24T07:05:06;10.80;1.00
10536;DHT22;5316;49.538;8.352;2023-04-24T07:07:35;10.90;1.00
10536;DHT22;5316;49.538;8.352;2023-04-24T07:10:04;11.00;1.00
10536;DHT22;5316;49.538;8.352;2023-04-24T07:12:31;11.10;1.00
10536;DHT22;5316;49.538;8.352;2023-04-24T07:14:59;11.10;1.00
10536;DHT22;5316;49.538;8.352;2023-04-24T07:17:27;11.10;1.00
10536;DHT22;5316;49.538;8.352;2023-04-24T07:19:53;11.20;1.00
10536;DHT22;5316;49.538;8.352;2023-04-24T07:22:21;11.30;1.00
10536;DHT22;5316;49.538;8.352;2023-04-24T07:24:49;11.40;99.90
10536;DHT22;5316;49.538;8.352;2023-04-24T07:29:51;11.40;99.90
10536;DHT22;5316;49.538;8.352;2023-04-24T07:32:18;11.50;99.90
10536;DHT22;5316;49.538;8.352;2023-04-24T07:34:46;11.60;21.90
10536;DHT22;5316;49.538;8.352;2023-04-24T07:37:13;11.70;78.50
10536;DHT22;5316;49.538;8.352;2023-04-24T07:39:40;11.80;1.00
10536;DHT22;5316;49.538;8.352;2023-04-24T07:42:08;11.80;1.00
10536;DHT22;5316;49.538;8.352;2023-04-24T07:44:35;11.80;99.90
10536;DHT22;5316;49.538;8.352;2023-04-24T07:47:02;11.60;1.00
10536;DHT22;5316;49.538;8.352;2023-04-24T07:49:29;11.70;20.30
10536;DHT22;5316;49.538;8.352;2023-04-24T07:51:56;11.80;99.90
10536;DHT22;5316;49.538;8.352;2023-04-24T07:54:26;12.00;99.90
10536;DHT22;5316;49.538;8.352;2023-04-24T07:56:52;12.10;1.00
10536;DHT22;5316;49.538;8.352;2023-04-24T07:59:21;12.10;37.50
10536;DHT22;5316;49.538;8.352;2023-04-24T08:01:48;12.20;1.00
10536;DHT22;5316;49.538;8.352;2023-04-24T08:04:15;12.20;99.90
10536;DHT22;5316;49.538;8.352;2023-04-24T08:06:43;12.20;47.50
10536;DHT22;5316;49.538;8.352;2023-04-24T08:09:10;12.30;99.90
10536;DHT22;5316;49.538;8.352;2023-04-24T08:11:37;12.30;1.00
10536;DHT22;5316;49.538;8.352;2023-04-24T08:14:04;12.30;99.90
10536;DHT22;5316;49.538;8.352;2023-04-24T08:16:32;12.20;99.90
10536;DHT22;5316;49.538;8.352;2023-04-24T08:18:59;12.00;3.00
10536;DHT22;5316;49.538;8.352;2023-04-24T08:21:26;12.00;1.00
10536;DHT22;5316;49.538;8.352;2023-04-24T08:23:53;11.90;5.80
10536;DHT22;5316;49.538;8.352;2023-04-24T08:26:20;11.90;5.20
10536;DHT22;5316;49.538;8.352;2023-04-24T08:28:48;12.00;99.90
10536;DHT22;5316;49.538;8.352;2023-04-24T08:31:15;12.10;99.90
10536;DHT22;5316;49.538;8.352;2023-04-24T08:33:43;12.10;1.00
10536;DHT22;5316;49.538;8.352;2023-04-24T08:36:11;12.20;6.30
10536;DHT22;5316;49.538;8.352;2023-04-24T08:38:38;12.20;99.90
10536;DHT22;5316;49.538;8.352;2023-04-24T08:41:05;12.20;99.90
10536;DHT22;5316;49.538;8.352;2023-04-24T08:43:34;12.20;5.90
10536;DHT22;5316;49.538;8.352;2023-04-24T08:46:04;12.00;1.00
10536;DHT22;5316;49.538;8.352;2023-04-24T08:48:31;12.10;99.90
10536;DHT22;5316;49.538;8.352;2023-04-24T08:50:59;12.10;94.40
10536;DHT22;5316;49.538;8.352;2023-04-24T08:53:27;12.10;99.90
10536;DHT22;5316;49.538;8.352;2023-04-24T08:55:55;12.10;99.90
10536;DHT22;5316;49.538;8.352;2023-04-24T08:58:24;12.10;1.00
10536;DHT22;5316;49.538;8.352;2023-04-24T09:00:52;12.10;1.00
10536;DHT22;5316;49.538;8.352;2023-04-24T09:03:21;12.10;99.90
10536;DHT22;5316;49.538;8.352;2023-04-24T09:05:49;12.10;99.90
10536;DHT22;5316;49.538;8.352;2023-04-24T09:08:19;12.00;1.00
10536;DHT22;5316;49.538;8.352;2023-04-24T09:10:46;12.00;1.00
10536;DHT22;5316;49.538;8.352;2023-04-24T09:13:13;12.00;1.00
10536;DHT22;5316;49.538;8.352;2023-04-24T09:15:41;12.00;99.90
10536;DHT22;5316;49.538;8.352;2023-04-24T09:18:08;12.30;99.90
10536;DHT22;5316;49.538;8.352;2023-04-24T09:20:35;12.30;98.50
10536;DHT22;5316;49.538;8.352;2023-04-24T09:23:26;12.30;1.00
10536;DHT22;5316;49.538;8.352;2023-04-24T09:25:54;12.40;1.00
10536;DHT22;5316;49.538;8.352;2023-04-24T09:28:26;12.40;1.00
10536;DHT22;5316;49.538;8.352;2023-04-24T09:31:05;12.60;99.90
10536;DHT22;5316;49.538;8.352;2023-04-24T09:33:32;12.60;1.00
10536;DHT22;5316;49.538;8.352;2023-04-24T09:36:01;12.40;99.90
10536;DHT22;5316;49.538;8.352;2023-04-24T09:38:33;12.40;1.00
10536;DHT22;5316;49.538;8.352;2023-04-24T09:41:05;12.40;99.90
10536;DHT22;5316;49.538;8.352;2023-04-24T09:43:33;12.50;99.90
10536;DHT22;5316;49.538;8.352;2023-04-24T09:46:05;12.30;1.00
10536;DHT22;5316;49.538;8.352;2023-04-24T09:48:33;12.20;99.90
10536;DHT22;5316;49.538;8.352;2023-04-24T09:51:02;12.10;1.00
10536;DHT22;5316;49.538;8.352;2023-04-24T09:53:30;12.10;99.90
10536;DHT22;5316;49.538;8.352;2023-04-24T09:56:07;12.20;99.90
10536;DHT22;5316;49.538;8.352;2023-04-24T09:58:35;12.20;5.70
10536;DHT22;5316;49.538;8.352;2023-04-24T10:01:03;12.30;6.00
10536;DHT22;5316;49.538;8.352;2023-04-24T10:03:30;12.40;1.00
10536;DHT22;5316;49.538;8.352;2023-04-24T10:05:59;12.50;99.90
10536;DHT22;5316;49.538;8.352;2023-04-24T10:08:26;12.50;1.00
10536;DHT22;5316;49.538;8.352;2023-04-24T10:10:59;12.70;99.90
10536;DHT22;5316;49.538;8.352;2023-04-24T10:13:28;12.70;99.90
10536;DHT22;5316;49.538;8.352;2023-04-24T10:15:56;12.60;11.60
10536;DHT22;5316;49.538;8.352;2023-04-24T10:18:26;12.60;1.00
10536;DHT22;5316;49.538;8.352;2023-04-24T10:20:53;12.50;1.00
10536;DHT22;5316;49.538;8.352;2023-04-24T10:23:22;12.60;99.90
10536;DHT22;5316;49.538;8.352;2023-04-24T10:25:49;12.60;45.50
10536;DHT22;5316;49.538;8.352;2023-04-24T10:28:18;12.70;99.90
10536;DHT22;5316;49.538;8.352;2023-04-24T10:30:47;12.70;99.90
10536;DHT22;5316;49.538;8.352;2023-04-24T10:33:16;12.80;82.40
10536;DHT22;5316;49.538;8.352;2023-04-24T10:35:45;12.90;1.00
10536;DHT22;5316;49.538;8.352;2023-04-24T10:38:16;12.90;99.90
10536;DHT22;5316;49.538;8.352;2023-04-24T10:40:45;12.90;1.00
10536;DHT22;5316;49.538;8.352;2023-04-24T10:43:16;13.00;1.00
10536;DHT22;5316;49.538;8.352;2023-04-24T10:46:00;12.90;1.00
10536;DHT22;5316;49.538;8.352;2023-04-24T10:48:28;13.00;1.00
10536;DHT22;5316;49.538;8.352;2023-04-24T10:50:55;13.10;87.90
10536;DHT22;5316;49.538;8.352;2023-04-24T10:53:24;13.10;99.90
10536;DHT22;5316;49.538;8.352;2023-04-24T10:55:57;13.20;1.00
10536;DHT22;5316;49.538;8.352;2023-04-24T10:58:37;13.20;99.90
10536;DHT22;5316;49.538;8.352;2023-04-24T11:01:07;13.30;1.00
10536;DHT22;5316;49.538;8.352;2023-04-24T11:03:35;13.30;99.90
10536;DHT22;5316;49.538;8.352;2023-04-24T11:06:03;13.20;1.00
10536;DHT22;5316;49.538;8.352;2023-04-24T11:08:32;13.20;1.00
10536;DHT22;5316;49.538;8.352;2023-04-24T11:11:09;12.90;99.90
10536;DHT22;5316;49.538;8.352;2023-04-24T11:14:03;12.90;99.90
10536;DHT22;5316;49.538;8.352;2023-04-24T11:16:42;12.90;1.00
10536;DHT22;5316;49.538;8.352;2023-04-24T11:19:18;12.90;99.90
10536;DHT22;5316;49.538;8.352;2023-04-24T11:21:47;13.00;1.00
10536;DHT22;5316;49.538;8.352;2023-04-24T11:24:28;13.10;9.90
10536;DHT22;5316;49.538;8.352;2023-04-24T11:26:57;13.10;99.90
10536;DHT22;5316;49.538;8.352;2023-04-24T11:29:39;12.90;99.90
10536;DHT22;5316;49.538;8.352;2023-04-24T11:32:16;13.00;99.90
10536;DHT22;5316;49.538;8.352;2023-04-24T11:34:46;13.00;72.70
10536;DHT22;5316;49.538;8.352;2023-04-24T11:37:13;13.20;1.00
10536;DHT22;5316;49.538;8.352;2023-04-24T11:39:40;13.10;1.00
10536;DHT22;5316;49.538;8.352;2023-04-24T11:42:08;12.90;1.00
10536;DHT22;5316;49.538;8.352;2023-04-24T11:44:35;12.90;1.00
10536;DHT22;5316;49.538;8.352;2023-04-24T11:47:03;12.80;99.90
10536;DHT22;5316;49.538;8.352;2023-04-24T11:49:32;12.70;99.90
10536;DHT22;5316;49.538;8.352;2023-04-24T11:52:00;12.70;99.90
10536;DHT22;5316;49.538;8.352;2023-04-24T11:54:27;12.80;1.00
10536;DHT22;5316;49.538;8.352;2023-04-24T11:56:55;12.80;1.00
10536;DHT22;5316;49.538;8.352;2023-04-24T11:59:22;12.80;1.00
10536;DHT22;5316;49.538;8.352;2023-04-24T12:01:49;12.80;99.90
10536;DHT22;5316;49.538;8.352;2023-04-24T12:04:17;12.90;1.00
10536;DHT22;5316;49.538;8.352;2023-04-24T12:07:01;13.20;1.00
10536;DHT22;5316;49.538;8.352;2023-04-24T12:09:28;13.30;99.90
10536;DHT22;5316;49.538;8.352;2023-04-24T12:11:56;13.40;99.90
10536;DHT22;5316;49.538;8.352;2023-04-24T12:14:23;13.50;1.00
10536;DHT22;5316;49.538;8.352;2023-04-24T12:16:51;13.50;69.20
10536;DHT22;5316;49.538;8.352;2023-04-24T12:19:20;13.80;1.00
10536;DHT22;5316;49.538;8.352;2023-04-24T12:22:01;14.00;1.00
10536;DHT22;5316;49.538;8.352;2023-04-24T12:24:29;14.00;1.00
10536;DHT22;5316;49.538;8.352;2023-04-24T12:26:57;13.90;1.00
10536;DHT22;5316;49.538;8.352;2023-04-24T12:29:24;13.90;1.00
10536;DHT22;5316;49.538;8.352;2023-04-24T12:31:51;14.00;1.00
10536;DHT22;5316;49.538;8.352;2023-04-24T12:34:19;14.00;1.00
10536;DHT22;5316;49.538;8.352;2023-04-24T12:36:46;14.10;99.90
10536;DHT22;5316;49.538;8.352;2023-04-24T12:39:19;14.00;99.90
10536;DHT22;5316;49.538;8.352;2023-04-24T12:41:54;14.00;1.00
10536;DHT22;5316;49.538;8.352;2023-04-24T12:44:31;14.10;1.00
10536;DHT22;5316;49.538;8.352;2023-04-24T12:47:00;14.00;99.90
10536;DHT22;5316;49.538;8.352;2023-04-24T12:49:27;14.10;99.90
10536;DHT22;5316;49.538;8.352;2023-04-24T12:51:54;14.10;99.90
10536;DHT22;5316;49.538;8.352;2023-04-24T12:54:22;14.20;99.90
10536;DHT22;5316;49.538;8.352;2023-04-24T12:56:49;14.10;99.90
10536;DHT22;5316;49.538;8.352;2023-04-24T12:59:16;14.00;99.90
10536;DHT22;5316;49.538;8.352;2023-04-24T13:01:43;13.90;99.90
10536;DHT22;5316;49.538;8.352;2023-04-24T13:04:10;13.80;99.90
10536;DHT22;5316;49.538;8.352;2023-04-24T13:06:37;13.80;99.90
10536;DHT22;5316;49.538;8.352;2023-04-24T13:09:04;13.90;99.90
10536;DHT22;5316;49.538;8.352;2023-04-24T13:11:32;13.90;99.90
10536;DHT22;5316;49.538;8.352;2023-04-24T13:14:00;13.90;99.90
10536;DHT22;5316;49.538;8.352;2023-04-24T13:16:26;14.20;99.90
10536;DHT22;5316;49.538;8.352;2023-04-24T13:18:53;14.30;99.90
10536;DHT22;5316;49.538;8.352;2023-04-24T13:21:20;14.40;19.20
10536;DHT22;5316;49.538;8.352;2023-04-24T13:23:47;14.60;1.00
10536;DHT22;5316;49.538;8.352;2023-04-24T13:26:14;14.50;1.00
10536;DHT22;5316;49.538;8.352;2023-04-24T13:28:43;14.50;1.00
10536;DHT22;5316;49.538;8.352;2023-04-24T13:31:10;14.50;99.90
10536;DHT22;5316;49.538;8.352;2023-04-24T13:33:36;14.40;99.90
10536;DHT22;5316;49.538;8.352;2023-04-24T13:36:03;14.40;1.00
10536;DHT22;5316;49.538;8.352;2023-04-24T13:38:30;14.30;1.00
10536;DHT22;5316;49.538;8.352;2023-04-24T13:40:57;14.20;1.00
10536;DHT22;5316;49.538;8.352;2023-04-24T13:43:24;14.00;1.00
10536;DHT22;5316;49.538;8.352;2023-04-24T13:45:52;13.90;1.00
10536;DHT22;5316;49.538;8.352;2023-04-24T13:48:19;13.90;1.00
10536;DHT22;5316;49.538;8.352;2023-04-24T13:50:46;13.90;1.00
10536;DHT22;5316;49.538;8.352;2023-04-24T13:53:13;13.90;1.00
10536;DHT22;5316;49.538;8.352;2023-04-24T13:55:40;14.00;1.00
10536;DHT22;5316;49.538;8.352;2023-04-24T13:58:07;13.90;1.00
10536;DHT22;5316;49.538;8.352;2023-04-24T14:00:34;13.90;1.00
10536;DHT22;5316;49.538;8.352;2023-04-24T14:03:02;13.90;42.40
10536;DHT22;5316;49.538;8.352;2023-04-24T14:05:29;13.90;60.50
10536;DHT22;5316;49.538;8.352;2023-04-24T14:07:56;13.80;34.20
10536;DHT22;5316;49.538;8.352;2023-04-24T14:10:23;13.70;99.90
10536;DHT22;5316;49.538;8.352;2023-04-24T14:12:51;13.70;99.90
10536;DHT22;5316;49.538;8.352;2023-04-24T14:15:18;13.70;99.90
10536;DHT22;5316;49.538;8.352;2023-04-24T14:17:45;13.80;99.90
10536;DHT22;5316;49.538;8.352;2023-04-24T14:20:13;14.20;20.50
10536;DHT22;5316;49.538;8.352;2023-04-24T14:22:40;14.90;1.00
10536;DHT22;5316;49.538;8.352;2023-04-24T14:25:08;15.70;99.90
10536;DHT22;5316;49.538;8.352;2023-04-24T14:27:35;16.10;99.90
10536;DHT22;5316;49.538;8.352;2023-04-24T14:30:02;16.40;99.90
10536;DHT22;5316;49.538;8.352;2023-04-24T14:32:30;16.70;42.50
10536;DHT22;5316;49.538;8.352;2023-04-24T14:34:57;16.60;52.00
10536;DHT22;5316;49.538;8.352;2023-04-24T14:37:25;17.00;1.00
10536;DHT22;5316;49.538;8.352;2023-04-24T14:39:52;17.10;1.00
10536;DHT22;5316;49.538;8.352;2023-04-24T14:42:18;16.20;1.00
10536;DHT22;5316;49.538;8.352;2023-04-24T14:44:45;15.60;99.90
10536;DHT22;5316;49.538;8.352;2023-04-24T14:47:13;15.20;99.90
10536;DHT22;5316;49.538;8.352;2023-04-24T14:49:40;14.90;99.90
10536;DHT22;5316;49.538;8.352;2023-04-24T14:52:09;14.70;1.00
10536;DHT22;5316;49.538;8.352;2023-04-24T14:54:37;14.60;1.00
10536;DHT22;5316;49.538;8.352;2023-04-24T14:57:03;14.50;99.90
10536;DHT22;5316;49.538;8.352;2023-04-24T14:59:30;14.30;1.00
10536;DHT22;5316;49.538;8.352;2023-04-24T15:01:57;14.20;99.90
10536;DHT22;5316;49.538;8.352;2023-04-24T15:04:24;14.00;99.90
10536;DHT22;5316;49.538;8.352;2023-04-24T15:06:52;13.90;99.90
10536;DHT22;5316;49.538;8.352;2023-04-24T15:09:19;13.90;1.00
10536;DHT22;5316;49.538;8.352;2023-04-24T15:11:48;13.80;99.90
10536;DHT22;5316;49.538;8.352;2023-04-24T15:14:15;13.60;99.90
10536;DHT22;5316;49.538;8.352;2023-04-24T15:16:42;13.60;1.00
10536;DHT22;5316;49.538;8.352;2023-04-24T15:19:09;13.80;1.00
10536;DHT22;5316;49.538;8.352;2023-04-24T15:21:36;14.30;99.90
10536;DHT22;5316;49.538;8.352;2023-04-24T15:24:05;14.70;1.00
10536;DHT22;5316;49.538;8.352;2023-04-24T15:26:32;15.10;99.90
10536;DHT22;5316;49.538;8.352;2023-04-24T15:29:00;15.70;1.00
10536;DHT22;5316;49.538;8.352;2023-04-24T15:31:27;16.20;99.90
10536;DHT22;5316;49.538;8.352;2023-04-24T15:33:54;16.70;1.00
10536;DHT22;5316;49.538;8.352;2023-04-24T15:36:21;16.60;1.00
10536;DHT22;5316;49.538;8.352;2023-04-24T15:38:49;16.60;1.00
10536;DHT22;5316;49.538;8.352;2023-04-24T15:41:16;16.40;75.70
10536;DHT22;5316;49.538;8.352;2023-04-24T15:43:43;16.10;1.00
10536;DHT22;5316;49.538;8.352;2023-04-24T15:46:11;15.30;76.10
10536;DHT22;5316;49.538;8.352;2023-04-24T15:48:38;15.00;99.90
10536;DHT22;5316;49.538;8.352;2023-04-24T15:51:06;14.50;1.00
10536;DHT22;5316;49.538;8.352;2023-04-24T15:53:33;14.30;26.80
10536;DHT22;5316;49.538;8.352;2023-04-24T15:56:00;14.20;99.90
10536;DHT22;5316;49.538;8.352;2023-04-24T15:58:28;13.90;99.90
10536;DHT22;5316;49.538;8.352;2023-04-24T16:00:55;13.80;99.90
10536;DHT22;5316;49.538;8.352;2023-04-24T16:03:23;13.70;99.90